createdAt,value
2022-10-30T00:01:24.970Z,100698.17
2022-10-30T00:03:51.835Z,100692.09
2022-10-30T00:06:20.309Z,100690.81
2022-10-30T00:11:31.958Z,100698.28
2022-10-30T00:13:58.644Z,100690.81
2022-10-30T00:16:26.139Z,100684.35
2022-10-30T00:18:52.752Z,100685.91
2022-10-30T00:24:07.093Z,100689.33
2022-10-30T00:26:34.021Z,100687.65
2022-10-30T00:29:00.563Z,100681.59
2022-10-30T00:31:27.345Z,100677.23
2022-10-30T00:36:39.603Z,100674.43
2022-10-30T00:39:06.308Z,100675.16
2022-10-30T00:41:33.162Z,100677.10
2022-10-30T00:46:44.821Z,100691.67
2022-10-30T00:49:19.279Z,100688.80
2022-10-30T00:51:50.005Z,100671.40
2022-10-30T00:57:10.741Z,100655.85
2022-10-30T00:59:37.836Z,100658.27
2022-10-30T01:02:06.872Z,100656.96
2022-10-30T01:04:37.116Z,100652.42
2022-10-30T01:07:12.581Z,100648.50
2022-10-30T01:09:40.307Z,100650.80
2022-10-30T01:12:07.329Z,100663.86
2022-10-30T01:14:39.268Z,100672.86
2022-10-30T01:17:27.695Z,100679.95
2022-10-30T01:28:55.560Z,100687.77
2022-10-30T01:31:58.623Z,100687.93
2022-10-30T01:37:20.243Z,100680.98
2022-10-30T01:39:47.080Z,100668.09
2022-10-30T01:42:47.957Z,100663.31
2022-10-30T01:45:42.220Z,100667.38
2022-10-30T01:48:14.535Z,100666.98
2022-10-30T01:50:49.019Z,100670.86
2022-10-30T01:53:27.116Z,100669.81
2022-10-30T01:59:07.537Z,100662.04
2022-10-30T02:01:36.492Z,100665.36
2022-10-30T02:09:22.255Z,100669.82
2022-10-30T02:11:50.736Z,100674.80
2022-10-30T02:14:31.308Z,100675.15
2022-10-30T02:17:02.399Z,100678.31
2022-10-30T02:19:29.040Z,100682.27
2022-10-30T02:21:55.970Z,100683.28
2022-10-30T02:24:22.536Z,100678.92
2022-10-30T02:29:34.091Z,100686.53
2022-10-30T02:32:01.134Z,100692.27
2022-10-30T02:34:27.849Z,100691.69
2022-10-30T02:36:54.564Z,100691.50
2022-10-30T02:39:21.354Z,100690.11
2022-10-30T02:41:48.546Z,100683.88
2022-10-30T02:44:15.323Z,100687.31
2022-10-30T02:46:42.328Z,100684.66
2022-10-30T02:49:09.290Z,100687.21
2022-10-30T02:51:36.379Z,100688.96
2022-10-30T02:54:03.352Z,100683.64
2022-10-30T02:56:29.971Z,100683.44
2022-10-30T03:01:41.800Z,100691.32
2022-10-30T03:04:09.075Z,100696.33
2022-10-30T03:09:20.835Z,100689.88
2022-10-30T03:11:47.499Z,100691.73
2022-10-30T03:14:14.351Z,100696.33
2022-10-30T03:16:41.070Z,100697.93
2022-10-30T03:21:54.523Z,100703.81
2022-10-30T03:24:21.130Z,100706.84
2022-10-30T03:29:32.835Z,100710.54
2022-10-30T03:31:59.491Z,100706.21
2022-10-30T03:34:26.994Z,100704.02
2022-10-30T03:36:53.780Z,100711.65
2022-10-30T03:39:20.559Z,100707.36
2022-10-30T03:41:47.173Z,100711.46
2022-10-30T03:44:13.876Z,100710.90
2022-10-30T03:46:40.484Z,100706.09
2022-10-30T03:49:07.252Z,100707.36
2022-10-30T03:51:33.911Z,100708.48
2022-10-30T03:54:00.418Z,100705.69
2022-10-30T03:56:26.979Z,100710.24
2022-10-30T03:58:53.831Z,100706.20
2022-10-30T04:01:20.553Z,100709.51
2022-10-30T04:03:47.376Z,100707.67
2022-10-30T04:06:14.089Z,100703.63
2022-10-30T04:11:26.036Z,100705.66
2022-10-30T04:13:52.916Z,100700.34
2022-10-30T04:16:19.587Z,100699.55
2022-10-30T04:21:30.870Z,100700.90
2022-10-30T04:23:57.973Z,100695.80
2022-10-30T04:26:24.463Z,100693.08
2022-10-30T04:28:51.243Z,100692.14
2022-10-30T04:31:17.942Z,100693.77
2022-10-30T04:33:44.696Z,100690.52
2022-10-30T04:38:56.250Z,100678.72
2022-10-30T04:41:23.007Z,100679.42
2022-10-30T04:43:50.024Z,100679.23
2022-10-30T04:49:01.366Z,100675.77
2022-10-30T04:51:28.172Z,100673.91
2022-10-30T04:53:54.893Z,100669.80
2022-10-30T04:56:21.696Z,100666.73
2022-10-30T04:58:48.538Z,100672.29
2022-10-30T05:01:15.340Z,100673.52
2022-10-30T05:06:30.137Z,100687.91
2022-10-30T05:08:57.372Z,100690.17
2022-10-30T05:11:24.324Z,100690.24
2022-10-30T05:13:51.002Z,100690.55
2022-10-30T05:16:17.675Z,100691.17
2022-10-30T05:18:44.292Z,100701.02
2022-10-30T05:21:11.932Z,100703.04
2022-10-30T05:23:38.682Z,100704.29
2022-10-30T05:28:50.330Z,100710.85
2022-10-30T05:31:17.103Z,100715.39
2022-10-30T05:33:45.062Z,100724.16
2022-10-30T05:36:14.077Z,100722.17
2022-10-30T05:38:40.902Z,100723.55
2022-10-30T05:41:07.656Z,100720.81
2022-10-30T05:43:46.760Z,100723.46
2022-10-30T05:46:13.320Z,100721.50
2022-10-30T05:51:25.697Z,100714.46
2022-10-30T05:53:52.672Z,100708.85
2022-10-30T05:56:19.325Z,100712.56
2022-10-30T06:01:36.240Z,100715.61
2022-10-30T06:04:03.361Z,100713.02
2022-10-30T06:06:30.000Z,100711.36
2022-10-30T06:11:42.372Z,100710.26
2022-10-30T06:14:09.396Z,100711.02
2022-10-30T06:19:20.880Z,100707.91
2022-10-30T06:21:47.955Z,100714.15
2022-10-30T06:24:14.772Z,100712.59
2022-10-30T06:26:41.912Z,100715.81
2022-10-30T06:29:08.815Z,100715.70
2022-10-30T06:31:35.479Z,100707.36
2022-10-30T06:34:02.542Z,100708.02
2022-10-30T06:39:14.707Z,100710.59
2022-10-30T06:41:42.767Z,100714.61
2022-10-30T06:44:09.561Z,100711.65
2022-10-30T06:49:30.251Z,100722.97
2022-10-30T06:51:59.849Z,100733.64
2022-10-30T06:54:26.279Z,100736.58
2022-10-30T06:56:53.406Z,100739.58
2022-10-30T07:02:07.031Z,100750.98
2022-10-30T07:04:35.416Z,100746.61
2022-10-30T07:07:03.063Z,100748.77
2022-10-30T07:09:29.860Z,100741.54
2022-10-30T07:14:41.696Z,100736.63
2022-10-30T07:17:08.657Z,100739.39
2022-10-30T07:19:35.326Z,100738.05
2022-10-30T07:22:02.024Z,100738.30
2022-10-30T07:24:28.761Z,100749.64
2022-10-30T07:26:56.179Z,100755.66
2022-10-30T07:29:23.220Z,100758.05
2022-10-30T07:32:02.152Z,100757.50
2022-10-30T07:34:29.619Z,100755.18
2022-10-30T07:36:56.494Z,100753.33
2022-10-30T07:39:23.263Z,100747.00
2022-10-30T07:41:50.439Z,100749.91
2022-10-30T07:44:17.528Z,100743.66
2022-10-30T07:46:44.876Z,100741.34
2022-10-30T07:49:11.660Z,100737.31
2022-10-30T07:51:38.855Z,100734.77
2022-10-30T07:54:05.558Z,100730.68
2022-10-30T07:56:32.098Z,100734.98
2022-10-30T07:58:58.682Z,100738.47
2022-10-30T08:01:25.438Z,100742.52
2022-10-30T08:09:22.396Z,100748.80
2022-10-30T08:14:34.476Z,100738.76
2022-10-30T08:17:01.071Z,100737.77
2022-10-30T08:22:13.643Z,100753.66
2022-10-30T08:24:40.341Z,100760.67
2022-10-30T08:27:06.936Z,100762.83
2022-10-30T08:29:36.396Z,100757.71
2022-10-30T08:34:48.359Z,100760.56
2022-10-30T08:37:16.982Z,100753.28
2022-10-30T08:39:43.888Z,100753.76
2022-10-30T08:42:10.997Z,100757.56
2022-10-30T08:44:37.550Z,100758.48
2022-10-30T09:00:54.900Z,100748.88
2022-10-30T09:03:25.571Z,100752.01
2022-10-30T09:05:52.539Z,100747.05
2022-10-30T09:08:19.385Z,100746.41
2022-10-30T09:10:46.070Z,100742.14
2022-10-30T09:13:12.994Z,100746.09
2022-10-30T09:15:39.791Z,100752.85
2022-10-30T09:18:06.800Z,100753.38
2022-10-30T09:20:33.717Z,100751.08
2022-10-30T09:23:00.916Z,100750.96
2022-10-30T09:25:28.218Z,100748.39
2022-10-30T09:27:55.177Z,100750.45
2022-10-30T09:33:06.927Z,100754.61
2022-10-30T09:38:18.755Z,100763.19
2022-10-30T09:41:13.576Z,100763.34
2022-10-30T09:44:21.979Z,100765.09
2022-10-30T09:47:03.883Z,100771.65
2022-10-30T09:50:13.794Z,100766.42
2022-10-30T09:53:06.332Z,100771.77
2022-10-30T09:55:58.916Z,100769.89
2022-10-30T09:58:52.709Z,100769.66
2022-10-30T10:01:45.458Z,100783.27
2022-10-30T10:04:20.993Z,100782.35
2022-10-30T10:06:58.337Z,100783.06
2022-10-30T10:09:29.212Z,100773.52
2022-10-30T10:15:00.313Z,100781.39
2022-10-30T10:17:38.955Z,100779.70
2022-10-30T10:20:13.546Z,100785.18
2022-10-30T10:22:49.964Z,100780.00
2022-10-30T10:25:30.333Z,100769.02
2022-10-30T10:28:05.220Z,100771.69
2022-10-30T10:30:55.756Z,100775.77
2022-10-30T10:33:32.756Z,100782.41
2022-10-30T10:36:06.056Z,100784.29
2022-10-30T10:38:56.853Z,100779.79
2022-10-30T10:41:29.855Z,100786.45
2022-10-30T10:44:28.758Z,100787.23
2022-10-30T10:53:54.696Z,100761.55
2022-10-30T10:56:40.185Z,100766.77
2022-10-30T10:59:18.766Z,100762.88
2022-10-30T11:01:52.544Z,100761.58
2022-10-30T11:04:38.946Z,100750.30
2022-10-30T11:07:17.737Z,100753.07
2022-10-30T11:09:52.676Z,100755.20
2022-10-30T11:12:25.538Z,100759.84
2022-10-30T11:14:52.172Z,100762.51
2022-10-30T11:17:36.656Z,100761.23
2022-10-30T11:20:18.312Z,100762.70
2022-10-30T11:22:50.841Z,100769.33
2022-10-30T11:25:28.590Z,100770.92
2022-10-30T11:28:05.056Z,100763.50
2022-10-30T11:33:23.216Z,100774.46
2022-10-30T11:35:50.754Z,100764.65
2022-10-30T11:38:20.846Z,100768.40
2022-10-30T11:40:52.296Z,100766.75
2022-10-30T11:43:25.596Z,100767.77
2022-10-30T11:45:53.719Z,100770.95
2022-10-30T11:48:30.319Z,100772.08
2022-10-30T11:51:01.583Z,100770.38
2022-10-30T11:53:49.775Z,100770.70
2022-10-30T11:56:21.178Z,100769.88
2022-10-30T11:58:52.819Z,100777.23
2022-10-30T12:01:23.936Z,100776.56
2022-10-30T12:03:52.956Z,100768.91
2022-10-30T12:06:22.459Z,100762.75
2022-10-30T12:09:09.800Z,100763.36
2022-10-30T12:11:38.720Z,100755.70
2022-10-30T12:14:06.217Z,100746.44
2022-10-30T12:19:22.495Z,100743.15
2022-10-30T12:21:56.567Z,100744.90
2022-10-30T12:24:36.329Z,100743.71
2022-10-30T12:27:05.736Z,100737.70
2022-10-30T12:30:08.851Z,100734.68
2022-10-30T12:32:52.219Z,100732.56
2022-10-30T12:35:31.310Z,100732.55
2022-10-30T12:38:01.969Z,100731.11
2022-10-30T12:40:31.397Z,100723.97
2022-10-30T12:43:05.001Z,100731.09
2022-10-30T12:45:44.581Z,100724.41
2022-10-30T12:48:27.558Z,100728.33
2022-10-30T12:51:10.322Z,100726.07
2022-10-30T12:53:47.055Z,100716.33
2022-10-30T12:59:20.043Z,100712.59
2022-10-30T13:02:05.468Z,100707.13
2022-10-30T13:04:39.343Z,100702.23
2022-10-30T13:07:20.911Z,100697.42
2022-10-30T13:13:03.735Z,100692.22
2022-10-30T13:15:35.472Z,100693.71
2022-10-30T13:21:11.323Z,100688.02
2022-10-30T13:24:22.667Z,100684.56
2022-10-30T13:27:24.252Z,100686.13
2022-10-30T13:30:16.702Z,100685.84
2022-10-30T13:32:46.500Z,100691.48
2022-10-30T13:35:26.746Z,100684.80
2022-10-30T13:38:18.601Z,100682.16
2022-10-30T13:40:54.527Z,100682.41
2022-10-30T13:46:54.258Z,100677.61
2022-10-30T13:49:33.313Z,100683.20
2022-10-30T13:52:14.596Z,100684.27
2022-10-30T13:55:06.996Z,100684.15
2022-10-30T13:58:15.162Z,100683.16
2022-10-30T14:01:06.133Z,100680.59
2022-10-30T14:03:45.272Z,100676.89
2022-10-30T14:06:48.806Z,100675.02
2022-10-30T14:09:41.716Z,100673.69
2022-10-30T14:12:45.883Z,100684.52
2022-10-30T14:15:40.502Z,100683.19
2022-10-30T14:18:13.088Z,100678.86
2022-10-30T14:20:46.901Z,100675.23
2022-10-30T14:23:19.998Z,100671.08
2022-10-30T14:26:01.945Z,100666.39
2022-10-30T14:28:39.054Z,100661.77
2022-10-30T15:21:55.993Z,100660.92
2022-10-30T15:24:32.118Z,100663.02
2022-10-30T15:27:02.737Z,100666.61
2022-10-30T15:29:35.451Z,100667.05
2022-10-30T15:35:13.901Z,100664.52
2022-10-30T15:38:03.491Z,100664.96
2022-10-30T15:40:33.567Z,100667.09
2022-10-30T15:43:04.587Z,100662.90
2022-10-30T15:48:23.199Z,100670.97
2022-10-30T15:51:04.429Z,100667.88
2022-10-30T15:53:54.211Z,100665.58
2022-10-30T15:56:32.832Z,100677.73
2022-10-30T15:59:06.667Z,100681.73
2022-10-30T16:04:36.941Z,100663.77
2022-10-30T16:07:31.680Z,100656.86
2022-10-30T16:10:03.590Z,100668.39
2022-10-30T16:12:34.756Z,100676.66
2022-10-30T16:18:12.778Z,100668.98
2022-10-30T16:23:41.618Z,100674.23
2022-10-30T16:29:27.210Z,100671.94
2022-10-30T16:31:55.761Z,100666.20
2022-10-30T16:34:42.641Z,100677.83
2022-10-30T16:37:19.458Z,100671.17
2022-10-30T16:39:51.172Z,100660.33
2022-10-30T16:45:10.613Z,100651.73
2022-10-30T16:47:43.426Z,100662.96
2022-10-30T16:50:15.860Z,100675.23
2022-10-30T16:52:44.794Z,100683.05
2022-10-30T16:58:15.096Z,100692.55
2022-10-30T17:01:09.865Z,100687.51
2022-10-30T17:03:41.899Z,100696.02
2022-10-30T17:06:35.900Z,100694.27
2022-10-30T17:09:26.393Z,100697.21
2022-10-30T17:12:15.636Z,100691.77
2022-10-30T17:14:49.566Z,100691.20
2022-10-30T17:17:44.096Z,100691.31
2022-10-30T17:20:22.848Z,100688.06
2022-10-30T17:23:07.722Z,100685.64
2022-10-30T17:25:56.278Z,100687.05
2022-10-30T17:28:44.785Z,100690.66
2022-10-30T17:31:19.279Z,100695.75
2022-10-30T17:34:06.878Z,100696.30
2022-10-30T17:36:34.909Z,100695.91
2022-10-30T17:41:49.814Z,100691.48
2022-10-30T17:44:21.516Z,100686.90
2022-10-30T17:46:52.279Z,100683.18
2022-10-30T17:49:28.795Z,100679.44
2022-10-30T17:51:57.840Z,100682.63
2022-10-30T17:57:32.659Z,100679.05
2022-10-30T18:00:00.988Z,100678.16
2022-10-30T18:02:29.128Z,100683.95
2022-10-30T18:05:00.253Z,100677.35
2022-10-30T18:07:28.889Z,100678.96
2022-10-30T18:09:58.353Z,100676.30
2022-10-30T18:15:26.156Z,100672.88
2022-10-30T18:17:54.494Z,100676.78
2022-10-30T18:20:24.173Z,100678.75
2022-10-30T18:22:53.692Z,100683.61
2022-10-30T18:25:24.678Z,100685.26
2022-10-30T18:27:53.637Z,100682.80
2022-10-30T18:30:21.850Z,100679.58
2022-10-30T18:32:50.671Z,100681.22
2022-10-30T18:35:29.726Z,100681.96
2022-10-30T18:37:58.678Z,100682.55
2022-10-30T18:40:26.757Z,100683.89
2022-10-30T18:45:42.115Z,100678.94
2022-10-30T18:48:11.606Z,100676.98
2022-10-30T18:50:39.965Z,100678.27
2022-10-30T18:53:15.924Z,100673.69
2022-10-30T18:55:44.804Z,100678.86
2022-10-30T18:58:13.336Z,100674.20
2022-10-30T19:01:09.943Z,100672.79
2022-10-30T19:03:30.449Z,100672.69
2022-10-30T19:05:58.958Z,100674.52
2022-10-30T19:16:46.538Z,100675.43
2022-10-30T19:19:15.279Z,100679.18
2022-10-30T19:21:46.416Z,100679.55
2022-10-30T19:24:15.682Z,100681.39
2022-10-30T19:26:44.013Z,100681.29
2022-10-30T19:29:12.251Z,100676.89
2022-10-30T19:31:40.337Z,100677.13
2022-10-30T19:34:08.682Z,100680.20
2022-10-30T19:36:37.462Z,100676.82
2022-10-30T19:39:17.059Z,100675.42
2022-10-30T19:41:46.083Z,100675.27
2022-10-30T19:47:01.916Z,100675.70
2022-10-30T19:49:32.903Z,100680.33
2022-10-30T19:52:01.357Z,100680.31
2022-10-30T19:54:29.692Z,100685.09
2022-10-30T19:59:44.264Z,100689.55
2022-10-30T20:04:58.746Z,100690.55
2022-10-30T20:07:27.156Z,100698.39
2022-10-30T20:09:55.317Z,100702.50
2022-10-30T20:12:23.603Z,100704.81
2022-10-30T20:14:51.709Z,100702.08
2022-10-30T20:17:19.966Z,100703.44
2022-10-30T20:19:48.192Z,100704.84
2022-10-30T20:22:16.340Z,100712.45
2022-10-30T20:24:44.673Z,100710.34
2022-10-30T20:27:13.377Z,100709.67
2022-10-30T20:29:43.836Z,100708.50
2022-10-30T20:32:12.063Z,100704.77
2022-10-30T20:37:26.112Z,100713.83
2022-10-30T20:39:54.434Z,100719.83
2022-10-30T20:42:24.298Z,100714.85
2022-10-30T20:44:52.899Z,100713.27
2022-10-30T20:47:21.065Z,100712.30
2022-10-30T20:49:49.226Z,100718.27
2022-10-30T20:52:17.394Z,100716.15
2022-10-30T20:57:31.715Z,100714.95
2022-10-30T20:59:59.987Z,100715.05
2022-10-30T21:02:28.792Z,100713.40
2022-10-30T21:07:43.156Z,100706.60
2022-10-30T21:10:11.321Z,100704.40
2022-10-30T21:12:39.690Z,100704.59
2022-10-30T21:15:08.086Z,100703.16
2022-10-30T21:17:36.531Z,100703.80
2022-10-30T21:20:05.109Z,100701.86
2022-10-30T21:22:33.558Z,100700.73
2022-10-30T21:30:33.626Z,100702.93
2022-10-30T21:33:02.194Z,100702.77
2022-10-30T21:38:17.327Z,100697.59
2022-10-30T21:40:54.252Z,100697.20
2022-10-30T21:43:22.623Z,100696.46
2022-10-30T21:45:50.816Z,100696.98
2022-10-30T21:48:19.710Z,100701.39
2022-10-30T21:50:47.899Z,100704.33
2022-10-30T21:53:16.146Z,100700.23
2022-10-30T21:55:44.437Z,100697.43
2022-10-30T21:58:12.483Z,100695.98
2022-10-30T22:00:40.944Z,100697.98
2022-10-30T22:03:11.220Z,100699.56
2022-10-30T22:05:39.389Z,100700.41
2022-10-30T22:08:07.767Z,100698.81
2022-10-30T22:10:35.941Z,100697.47
2022-10-30T22:13:04.064Z,100696.13
2022-10-30T22:18:18.269Z,100686.39
2022-10-30T22:20:46.296Z,100687.73
2022-10-30T22:23:14.464Z,100687.69
2022-10-30T22:25:42.677Z,100682.55
2022-10-30T22:31:02.226Z,100686.17
2022-10-30T22:33:31.859Z,100680.48
2022-10-30T22:39:01.881Z,100673.09
2022-10-30T22:41:34.585Z,100677.59
2022-10-30T22:46:53.933Z,100676.25
2022-10-30T22:52:07.889Z,100676.70
2022-10-30T22:54:35.966Z,100677.11
2022-10-30T22:57:04.020Z,100676.50
2022-10-30T22:59:32.070Z,100677.11
2022-10-30T23:02:00.561Z,100676.67
2022-10-30T23:04:29.036Z,100680.50
2022-10-30T23:06:57.241Z,100682.89
2022-10-30T23:09:25.491Z,100681.25
2022-10-30T23:11:53.479Z,100682.08
2022-10-30T23:14:21.722Z,100682.64
2022-10-30T23:16:49.720Z,100682.91
2022-10-30T23:19:17.898Z,100682.50
2022-10-30T23:21:46.021Z,100681.23
2022-10-30T23:24:14.708Z,100677.02
2022-10-30T23:26:42.855Z,100683.30
2022-10-30T23:29:11.135Z,100687.23
2022-10-30T23:31:41.500Z,100683.45
2022-10-30T23:34:14.112Z,100687.85
2022-10-30T23:36:45.245Z,100684.23
2022-10-30T23:39:16.833Z,100688.86
2022-10-30T23:41:45.614Z,100688.80
2022-10-30T23:44:15.641Z,100689.59
2022-10-30T23:46:43.998Z,100689.57
2022-10-30T23:49:12.376Z,100687.35
2022-10-30T23:51:40.640Z,100688.36
2022-10-30T23:54:09.140Z,100688.28
2022-10-30T23:56:37.259Z,100690.85
2022-10-30T23:59:05.499Z,100691.27
